Time;durP1;ratioP1;P1;durP2;ratioP2;P2;SDS_P1;SDS_P2;PMS_P1;PMS_P2;Temp;Humidity;BMP_temperature;BMP_pressure;BME280_temperature;BME280_humidity;BME280_pressure;Samples;Min_cycle;Max_cycle;Signal;HPM_P1;HPM_P2
2023/12/12 00:02:40;;;;;;;7.40;1.70;;;;;;;8.94;57.10;99246.31;10253581;28;20137;-64
2023/12/12 00:07:42;;;;;;;3.72;1.08;;;;;;;8.86;56.89;99248.56;10268637;28;20058;-64
2023/12/12 00:12:44;;;;;;;9.60;3.00;;;;;;;8.89;56.92;99248.41;10271429;28;20562;-65
2023/12/12 00:17:47;;;;;;;4.88;1.98;;;;;;;9.11;56.80;99258.28;10268692;28;20034;-66
2023/12/12 00:22:49;;;;;;;6.38;3.08;;;;;;;9.20;56.49;99253.28;10270663;28;20490;-64
2023/12/12 00:27:51;;;;;;;6.25;1.98;;;;;;;9.30;56.40;99256.16;10271243;28;20046;-65
2023/12/12 00:32:53;;;;;;;5.70;2.83;;;;;;;9.35;56.20;99252.31;10258477;28;20078;-66
2023/12/12 00:37:55;;;;;;;4.88;1.52;;;;;;;9.33;55.75;99246.34;10268073;28;20047;-64
2023/12/12 00:42:57;;;;;;;5.90;1.95;;;;;;;9.30;55.64;99243.94;10275601;28;20084;-64
2023/12/12 00:47:59;;;;;;;7.10;1.90;;;;;;;9.27;55.45;99238.94;10268010;28;20047;-64
2023/12/12 00:53:02;;;;;;;4.55;1.73;;;;;;;9.29;55.48;99239.66;10267348;28;20506;-64
2023/12/12 00:58:05;;;;;;;12.52;2.38;;;;;;;9.30;55.35;99254.38;10266736;28;20047;-64
2023/12/12 01:03:07;;;;;;;5.80;2.05;;;;;;;9.33;55.54;99245.50;10270108;28;20141;-64
2023/12/12 01:08:09;;;;;;;8.70;1.60;;;;;;;9.37;55.41;99242.59;10267581;28;20391;-65
2023/12/12 01:13:11;;;;;;;10.60;3.03;;;;;;;9.34;55.85;99240.19;10256761;28;20051;-65
2023/12/12 01:18:13;;;;;;;4.95;1.95;;;;;;;9.39;56.11;99240.72;10252365;28;20693;-65
2023/12/12 01:23:15;;;;;;;6.18;1.45;;;;;;;9.38;56.31;99236.44;10249631;28;20054;-65
2023/12/12 01:28:17;;;;;;;6.43;2.33;;;;;;;9.42;56.20;99231.88;10267324;28;20792;-65
2023/12/12 01:33:21;;;;;;;6.97;1.80;;;;;;;9.39;56.68;99237.28;10265838;28;20538;-65
2023/12/12 01:38:23;;;;;;;9.85;2.50;;;;;;;9.31;57.03;99240.41;10280376;28;20440;-65
2023/12/12 01:43:27;;;;;;;14.68;3.50;;;;;;;9.21;57.38;99241.94;10265662;28;20058;-65
2023/12/12 01:48:30;;;;;;;5.18;1.90;;;;;;;9.20;57.70;99237.66;10269826;28;20054;-65
2023/12/12 01:53:40;;;;;;;5.40;2.10;;;;;;;9.29;57.96;99229.22;10270313;28;20062;-65
2023/12/12 01:58:45;;;;;;;7.40;2.33;;;;;;;9.26;58.01;99216.38;10265828;28;20479;-65
2023/12/12 02:03:49;;;;;;;5.03;1.40;;;;;;;9.24;58.30;99223.47;10251769;28;20518;-65
2023/12/12 02:08:52;;;;;;;2.67;1.42;;;;;;;9.27;58.43;99222.44;10270687;28;20051;-65
2023/12/12 02:13:54;;;;;;;11.32;2.08;;;;;;;9.24;58.44;99230.47;10266132;28;20486;-65
2023/12/12 02:18:56;;;;;;;3.88;1.73;;;;;;;9.26;58.60;99226.81;10267230;28;20047;-64
2023/12/12 02:23:58;;;;;;;8.23;2.45;;;;;;;9.23;58.67;99229.63;10266245;28;20043;-65
2023/12/12 02:29:00;;;;;;;11.13;2.25;;;;;;;9.31;58.70;99232.56;10256109;28;20621;-65
2023/12/12 02:34:02;;;;;;;7.47;2.13;;;;;;;9.16;59.05;99227.50;10268313;28;20047;-65
2023/12/12 02:39:04;;;;;;;8.30;2.50;;;;;;;9.11;59.25;99226.97;10277727;28;20506;-64
2023/12/12 02:44:06;;;;;;;6.80;2.08;;;;;;;9.18;59.34;99229.06;10271961;28;20141;-65
2023/12/12 02:49:09;;;;;;;4.80;1.52;;;;;;;9.20;59.30;99218.56;10272156;28;20079;-65
2023/12/12 02:54:12;;;;;;;6.20;1.67;;;;;;;9.07;59.62;99220.28;10271222;28;20051;-64
2023/12/12 02:59:14;;;;;;;9.32;2.67;;;;;;;9.09;59.56;99229.69;10258380;28;20082;-65
2023/12/12 03:04:16;;;;;;;4.50;1.67;;;;;;;9.07;59.70;99231.56;10270992;28;20053;-65
2023/12/12 03:09:18;;;;;;;6.72;1.92;;;;;;;9.08;59.72;99222.78;10271135;28;20043;-65
2023/12/12 03:14:25;;;;;;;2.45;1.40;;;;;;;9.11;59.82;99227.81;10272967;28;20057;-65
2023/12/12 03:19:28;;;;;;;5.57;1.52;;;;;;;9.09;59.88;99213.19;10271221;28;20054;-66
2023/12/12 03:24:30;;;;;;;6.80;1.48;;;;;;;9.05;60.02;99233.44;10273917;28;20133;-66
2023/12/12 03:29:32;;;;;;;6.68;2.47;;;;;;;8.93;60.26;99226.41;10269863;28;20063;-65
2023/12/12 03:34:34;;;;;;;4.93;1.95;;;;;;;8.93;60.30;99228.16;10256603;28;20055;-65
2023/12/12 03:39:37;;;;;;;8.48;2.35;;;;;;;8.88;60.56;99231.06;10272108;28;20050;-65
2023/12/12 03:44:39;;;;;;;10.35;2.08;;;;;;;8.87;60.54;99212.91;10270092;28;20103;-65
2023/12/12 03:49:41;;;;;;;8.27;2.33;;;;;;;8.97;60.42;99224.44;10270607;28;20111;-66
2023/12/12 03:54:43;;;;;;;10.63;2.45;;;;;;;9.07;60.13;99209.84;10270060;28;20139;-66
2023/12/12 03:59:45;;;;;;;7.60;2.60;;;;;;;8.95;60.14;99216.72;10257304;28;20047;-65
2023/12/12 04:04:47;;;;;;;8.57;2.05;;;;;;;8.89;60.27;99208.44;10268221;28;20047;-65
2023/12/12 04:09:49;;;;;;;6.63;1.60;;;;;;;8.93;60.25;99212.53;10273115;28;20502;-65
2023/12/12 04:14:51;;;;;;;7.55;2.10;;;;;;;8.92;60.37;99211.69;10269309;28;20047;-65
2023/12/12 04:19:53;;;;;;;6.30;2.47;;;;;;;8.92;60.29;99210.84;10269593;28;20814;-65
2023/12/12 04:24:55;;;;;;;6.47;2.22;;;;;;;8.91;60.43;99193.53;10268302;28;20142;-64
2023/12/12 04:29:57;;;;;;;8.60;2.58;;;;;;;8.97;60.26;99188.75;10268942;28;20050;-64
2023/12/12 04:35:00;;;;;;;2.85;1.60;;;;;;;9.03;60.15;99185.75;10268383;28;20161;-64
2023/12/12 04:40:02;;;;;;;7.57;2.55;;;;;;;8.90;60.24;99171.81;10272374;28;20108;-65
2023/12/12 04:45:06;;;;;;;4.45;1.65;;;;;;;8.78;60.51;99170.84;10272330;28;20053;-66
2023/12/12 04:50:09;;;;;;;9.98;2.92;;;;;;;8.72;60.75;99171.25;10268886;28;20165;-65
2023/12/12 04:55:11;;;;;;;5.35;1.52;;;;;;;8.77;60.44;99170.97;10270755;28;20482;-65
2023/12/12 05:00:13;;;;;;;8.90;2.55;;;;;;;8.63;60.48;99165.78;10253167;28;20062;-65
2023/12/12 05:05:15;;;;;;;8.75;2.08;;;;;;;8.49;60.57;99166.66;10254029;28;20047;-65
2023/12/12 05:10:18;;;;;;;5.00;1.95;;;;;;;8.29;60.77;99161.03;10273470;28;20136;-64
2023/12/12 05:15:20;;;;;;;8.57;2.58;;;;;;;8.03;61.27;99160.84;10270341;28;20517;-65
2023/12/12 05:20:22;;;;;;;7.40;1.63;;;;;;;7.93;61.45;99151.94;10267141;28;20053;-65
2023/12/12 05:25:24;;;;;;;8.95;2.47;;;;;;;7.98;61.67;99152.47;10267261;28;20043;-65
2023/12/12 05:30:27;;;;;;;7.38;2.53;;;;;;;8.09;61.53;99158.78;10250841;28;20054;-65
2023/12/12 05:35:29;;;;;;;7.43;2.13;;;;;;;8.08;61.77;99157.13;10252032;28;20051;-65
2023/12/12 05:40:31;;;;;;;5.70;2.35;;;;;;;8.09;61.87;99162.22;10236757;28;20187;-65
2023/12/12 05:45:33;;;;;;;7.07;2.78;;;;;;;8.25;61.71;99154.31;10262828;28;20131;-66
2023/12/12 05:50:35;;;;;;;9.07;2.55;;;;;;;8.35;61.46;99147.59;10263706;28;20137;-66
2023/12/12 05:55:37;;;;;;;3.25;1.35;;;;;;;8.33;61.62;99149.47;10265683;28;20059;-65
2023/12/12 06:00:41;;;;;;;2.90;1.67;;;;;;;8.29;61.68;99148.84;10262824;28;20075;-65
2023/12/12 06:05:44;;;;;;;7.32;2.00;;;;;;;8.35;61.68;99152.81;10263065;28;20074;-66
2023/12/12 06:10:46;;;;;;;6.05;1.65;;;;;;;8.29;61.81;99134.97;10269323;28;20486;-65
2023/12/12 06:15:49;;;;;;;5.85;2.30;;;;;;;8.28;61.79;99138.53;10274998;28;20059;-66
2023/12/12 06:20:51;;;;;;;5.82;2.08;;;;;;;8.29;61.72;99138.41;10273647;28;20134;-65
2023/12/12 06:25:54;;;;;;;7.30;2.22;;;;;;;8.24;61.84;99140.47;10276805;28;20061;-65
2023/12/12 06:30:56;;;;;;;5.45;1.60;;;;;;;8.23;61.99;99148.38;10271517;28;20058;-65
2023/12/12 06:35:58;;;;;;;3.97;1.98;;;;;;;8.08;61.87;99149.31;10275247;28;20411;-65
2023/12/12 06:41:01;;;;;;;8.18;1.67;;;;;;;7.90;62.29;99139.09;10275905;28;20065;-64
2023/12/12 06:46:03;;;;;;;7.22;1.70;;;;;;;7.84;61.99;99125.59;10260362;28;20059;-65
2023/12/12 06:51:06;;;;;;;5.07;1.77;;;;;;;7.69;62.00;99121.34;10275930;28;20054;-64
2023/12/12 06:56:09;;;;;;;4.30;1.58;;;;;;;7.48;62.49;99122.63;10278239;28;20414;-64
2023/12/12 07:01:13;;;;;;;5.63;2.00;;;;;;;7.33;62.60;99113.97;10276120;28;20046;-64
2023/12/12 07:06:20;;;;;;;6.25;1.58;;;;;;;7.20;62.93;99118.25;10271360;28;20069;-64
2023/12/12 07:11:22;;;;;;;5.55;1.83;;;;;;;7.13;63.10;99116.91;10261657;28;20502;-64
2023/12/12 07:16:25;;;;;;;5.35;2.08;;;;;;;7.04;63.23;99114.88;10271916;28;20120;-64
2023/12/12 07:21:27;;;;;;;2.75;1.48;;;;;;;6.89;63.33;99110.56;10272125;28;20042;-64
2023/12/12 07:26:29;;;;;;;11.35;2.45;;;;;;;6.80;63.65;99118.84;10273289;28;20045;-65
2023/12/12 07:31:31;;;;;;;3.53;1.50;;;;;;;6.77;63.95;99104.31;10261666;28;20144;-65
2023/12/12 07:36:34;;;;;;;2.20;1.20;;;;;;;6.77;64.00;99101.72;10260020;28;20395;-65
2023/12/12 07:41:36;;;;;;;4.35;1.55;;;;;;;6.71;63.96;99109.00;10269822;28;20092;-65
2023/12/12 07:46:39;;;;;;;5.85;2.53;;;;;;;6.62;64.15;99096.53;10269978;28;20047;-65
2023/12/12 07:51:41;;;;;;;6.18;2.58;;;;;;;6.43;64.36;99098.50;10269610;28;20499;-64
2023/12/12 07:56:43;;;;;;;3.80;1.88;;;;;;;6.53;64.23;99091.88;10262113;28;20481;-65
2023/12/12 08:01:45;;;;;;;7.40;2.45;;;;;;;6.54;64.31;99088.34;10275965;28;20472;-64
2023/12/12 08:06:48;;;;;;;5.85;2.30;;;;;;;6.56;64.33;99099.47;10271227;28;20046;-64
2023/12/12 08:11:50;;;;;;;4.07;2.17;;;;;;;6.47;64.03;99100.81;10270975;28;20061;-65
2023/12/12 08:16:53;;;;;;;6.88;2.63;;;;;;;6.49;64.62;99111.16;10272219;28;20053;-65
2023/12/12 08:21:55;;;;;;;12.50;2.65;;;;;;;6.57;64.38;99101.16;10269421;28;20129;-65
2023/12/12 08:26:57;;;;;;;8.32;3.00;;;;;;;6.77;64.14;99100.88;10268286;28;20050;-65
2023/12/12 08:31:59;;;;;;;7.82;3.38;;;;;;;6.95;64.09;99086.81;10270008;28;20090;-65
2023/12/12 08:37:01;;;;;;;7.13;2.70;;;;;;;7.01;63.65;99091.63;10270263;28;20042;-66
2023/12/12 08:42:03;;;;;;;10.32;3.08;;;;;;;7.09;63.67;99099.81;10266329;28;20050;-65
2023/12/12 08:47:06;;;;;;;6.32;2.75;;;;;;;7.10;63.25;99097.13;10268062;28;20141;-65
2023/12/12 08:52:08;;;;;;;6.20;2.78;;;;;;;7.18;63.57;99099.31;10268250;28;20063;-65
2023/12/12 08:57:12;;;;;;;11.30;2.42;;;;;;;7.44;63.47;99085.56;10270179;28;20667;-67
2023/12/12 09:02:14;;;;;;;6.00;2.20;;;;;;;7.61;63.28;99082.75;10264684;28;20137;-66
2023/12/12 09:07:17;;;;;;;2.28;1.58;;;;;;;7.89;62.94;99074.97;10256232;28;20042;-66
2023/12/12 09:12:19;;;;;;;8.20;2.10;;;;;;;7.89;62.71;99068.91;10266184;28;20050;-64
2023/12/12 09:17:21;;;;;;;7.18;2.53;;;;;;;7.83;62.97;99061.47;10272338;28;20045;-66
2023/12/12 09:22:23;;;;;;;5.78;1.90;;;;;;;7.89;62.90;99043.72;10269285;28;20062;-65
2023/12/12 09:27:25;;;;;;;7.93;2.45;;;;;;;7.58;63.06;99038.75;10256562;28;20062;-66
2023/12/12 09:32:27;;;;;;;5.45;2.78;;;;;;;7.68;63.16;99036.38;10268314;28;20145;-65
2023/12/12 09:37:29;;;;;;;11.55;3.53;;;;;;;7.94;62.86;99022.56;10265802;28;20050;-65
2023/12/12 09:42:34;;;;;;;6.80;3.40;;;;;;;8.06;62.83;99002.75;10268326;28;20047;-66
2023/12/12 09:47:37;;;;;;;5.25;2.17;;;;;;;8.22;62.59;99012.09;10274221;28;20039;-66
2023/12/12 09:52:42;;;;;;;5.28;3.05;;;;;;;8.40;62.12;98995.28;10270320;28;20138;-65
2023/12/12 09:57:44;;;;;;;6.63;2.53;;;;;;;8.51;62.07;98986.75;10261598;28;20392;-66
2023/12/12 10:02:47;;;;;;;6.80;2.83;;;;;;;8.70;61.87;98988.03;10263262;28;20066;-66
2023/12/12 10:07:49;;;;;;;10.05;2.90;;;;;;;8.67;61.78;98974.34;10275467;28;20145;-66
2023/12/12 10:13:05;;;;;;;10.75;3.38;;;;;;;8.85;61.57;98963.53;10273307;28;20047;-67
2023/12/12 10:18:07;;;;;;;9.68;2.92;;;;;;;8.96;61.40;98954.13;10277419;28;20039;-67
2023/12/12 10:23:11;;;;;;;4.70;2.30;;;;;;;9.01;61.20;98942.47;10276582;28;20050;-67
2023/12/12 10:28:13;;;;;;;11.57;2.95;;;;;;;9.14;61.06;98939.81;10273841;28;20092;-71
2023/12/12 10:33:15;;;;;;;8.77;3.50;;;;;;;9.00;61.10;98937.34;10274603;28;20050;-67
2023/12/12 10:38:23;;;;;;;10.77;3.20;;;;;;;8.99;61.01;98920.88;10272140;28;20524;-66
2023/12/12 10:43:26;;;;;;;9.25;3.35;;;;;;;9.24;60.88;98930.44;10271751;28;20051;-67
2023/12/12 10:48:29;;;;;;;7.15;2.50;;;;;;;9.53;60.36;98908.31;10273347;28;20057;-67
2023/12/12 10:53:32;;;;;;;7.22;3.00;;;;;;;9.58;59.90;98901.81;10258554;28;20051;-66
2023/12/12 10:58:36;;;;;;;8.93;2.58;;;;;;;9.88;59.72;98879.69;10274304;28;20697;-66
2023/12/12 11:03:40;;;;;;;11.27;2.72;;;;;;;9.76;59.36;98876.22;10271659;28;20766;-66
2023/12/12 11:08:46;;;;;;;7.45;2.47;;;;;;;9.48;59.66;98860.84;10271297;28;20049;-67
2023/12/12 11:13:51;;;;;;;6.40;2.60;;;;;;;9.56;59.58;98861.94;10318315;28;20104;-66
2023/12/12 11:18:55;;;;;;;6.47;2.25;;;;;;;9.45;59.92;98855.84;10270669;28;20537;-67
2023/12/12 11:23:57;;;;;;;13.75;3.72;;;;;;;9.54;60.13;98850.78;10268980;28;20927;-66
2023/12/12 11:28:59;;;;;;;8.02;3.53;;;;;;;9.74;60.36;98833.72;10267995;28;20088;-66
2023/12/12 11:34:10;;;;;;;14.23;3.55;;;;;;;9.79;60.47;98820.31;10269677;28;20138;-66
2023/12/12 11:39:29;;;;;;;9.48;3.17;;;;;;;9.79;60.67;98822.94;10253133;28;20055;-66
2023/12/12 11:45:01;;;;;;;6.60;2.63;;;;;;;9.59;61.41;98793.88;10266909;28;20551;-66
2023/12/12 11:50:11;;;;;;;17.15;2.90;;;;;;;9.84;61.33;98786.84;10262895;28;20039;-66
2023/12/12 11:55:23;;;;;;;4.32;2.25;;;;;;;10.09;61.38;98781.47;10269041;28;20140;-66
2023/12/12 12:00:25;;;;;;;10.25;2.22;;;;;;;10.00;61.74;98777.75;10270876;28;20058;-66
2023/12/12 12:05:27;;;;;;;9.57;2.22;;;;;;;9.77;61.91;98767.38;10269139;28;20482;-66
2023/12/12 12:10:30;;;;;;;11.98;2.10;;;;;;;9.57;62.64;98761.84;10268776;28;20043;-66
2023/12/12 12:15:32;;;;;;;4.85;2.47;;;;;;;9.42;63.04;98746.47;10256336;28;20097;-66
2023/12/12 12:20:46;;;;;;;10.88;3.03;;;;;;;9.41;63.91;98737.81;10266837;28;20102;-67
2023/12/12 12:25:48;;;;;;;10.38;2.83;;;;;;;9.37;63.77;98727.72;10251538;28;20047;-67
2023/12/12 12:30:51;;;;;;;8.23;3.03;;;;;;;9.35;64.07;98729.59;10269893;28;20050;-67
2023/12/12 12:35:53;;;;;;;5.60;2.50;;;;;;;9.41;64.12;98729.16;10269044;28;20054;-67
2023/12/12 12:40:56;;;;;;;9.57;2.65;;;;;;;9.40;64.31;98717.88;10266759;28;20124;-67
2023/12/12 12:46:06;;;;;;;5.53;2.60;;;;;;;9.54;64.31;98704.63;10255676;28;20661;-67
2023/12/12 12:51:08;;;;;;;3.80;2.10;;;;;;;9.65;64.18;98699.44;10267941;28;20134;-67
2023/12/12 12:56:11;;;;;;;5.55;2.63;;;;;;;9.60;64.11;98695.53;10269602;28;20142;-67
2023/12/12 13:01:13;;;;;;;6.78;2.40;;;;;;;9.61;64.00;98679.72;10272710;28;20065;-67
2023/12/12 13:06:17;;;;;;;7.65;3.28;;;;;;;9.75;63.84;98676.09;10257771;28;20494;-68
2023/12/12 13:11:20;;;;;;;4.82;2.53;;;;;;;9.80;63.83;98675.75;10272923;28;20133;-67
2023/12/12 13:16:22;;;;;;;8.43;3.13;;;;;;;9.79;63.88;98663.66;10265380;28;20502;-67
2023/12/12 13:21:24;;;;;;;10.13;2.47;;;;;;;9.73;64.04;98656.31;10258110;28;20054;-68
2023/12/12 13:26:27;;;;;;;6.47;2.42;;;;;;;9.81;63.99;98659.97;10268006;28;20062;-68
2023/12/12 13:31:31;;;;;;;7.30;2.53;;;;;;;9.80;63.83;98657.47;10272370;28;20055;-68
2023/12/12 13:36:36;;;;;;;7.80;3.10;;;;;;;9.72;64.06;98644.19;10252125;28;20140;-68
2023/12/12 13:41:46;;;;;;;9.70;2.58;;;;;;;9.67;64.35;98646.34;10261251;28;20301;-67
2023/12/12 13:46:48;;;;;;;6.28;2.30;;;;;;;9.73;64.29;98638.03;10275282;28;20047;-66
2023/12/12 13:51:51;;;;;;;7.63;2.80;;;;;;;9.75;64.42;98630.91;10305789;28;20756;-66
2023/12/12 13:56:53;;;;;;;7.63;3.00;;;;;;;9.71;64.68;98624.25;10286376;28;20050;-66
2023/12/12 14:01:55;;;;;;;11.45;3.80;;;;;;;9.69;64.65;98618.34;10258221;28;20051;-69
2023/12/12 14:06:58;;;;;;;4.97;2.20;;;;;;;9.53;65.02;98616.00;10284019;28;20415;-66
2023/12/12 14:12:01;;;;;;;7.03;2.63;;;;;;;9.65;65.08;98609.84;10258109;28;20163;-67
2023/12/12 14:17:04;;;;;;;5.10;2.88;;;;;;;9.57;65.09;98607.00;10269417;28;20051;-66
2023/12/12 14:22:06;;;;;;;7.90;3.08;;;;;;;9.45;65.61;98600.94;10253051;28;20574;-67
2023/12/12 14:27:09;;;;;;;9.93;3.20;;;;;;;9.48;65.42;98595.47;10252980;28;20525;-68
2023/12/12 14:32:11;;;;;;;3.53;2.03;;;;;;;9.32;66.00;98602.00;10262128;28;20054;-68
2023/12/12 14:37:13;;;;;;;7.82;3.30;;;;;;;9.28;66.02;98595.34;10290202;28;20043;-66
2023/12/12 14:42:16;;;;;;;8.50;3.00;;;;;;;9.32;66.06;98588.94;10276682;28;20050;-67
2023/12/12 14:47:19;;;;;;;8.80;3.33;;;;;;;9.27;66.20;98581.47;10263363;28;20046;-67
2023/12/12 14:52:21;;;;;;;6.50;2.70;;;;;;;9.34;66.36;98584.44;10271767;28;20073;-67
2023/12/12 14:57:24;;;;;;;15.60;4.40;;;;;;;9.47;66.13;98578.16;10263627;28;20047;-66
2023/12/12 15:02:28;;;;;;;7.43;2.75;;;;;;;9.52;66.13;98560.38;10269864;28;20050;-66
2023/12/12 15:07:31;;;;;;;10.23;3.40;;;;;;;9.59;66.03;98561.56;10275433;28;20179;-69
2023/12/12 15:12:33;;;;;;;9.05;4.80;;;;;;;9.57;66.01;98544.34;10272256;28;20051;-67
2023/12/12 15:17:36;;;;;;;13.57;4.20;;;;;;;9.53;66.13;98546.38;10268723;28;20047;-67
2023/12/12 15:22:38;;;;;;;8.40;3.55;;;;;;;9.50;66.12;98546.59;10260115;28;20046;-67
2023/12/12 15:27:40;;;;;;;13.25;5.35;;;;;;;9.52;66.06;98546.50;10269290;28;20100;-67
2023/12/12 15:32:42;;;;;;;11.65;5.25;;;;;;;9.55;66.09;98533.19;10254029;28;20077;-67
2023/12/12 15:37:48;;;;;;;7.47;3.17;;;;;;;9.50;66.12;98532.75;10276927;28;20071;-67
2023/12/12 15:42:50;;;;;;;9.65;4.25;;;;;;;9.50;66.17;98520.50;10276146;28;20038;-67
2023/12/12 15:47:52;;;;;;;8.77;4.28;;;;;;;9.49;66.07;98504.97;10272962;28;20047;-68
2023/12/12 15:52:54;;;;;;;10.63;4.47;;;;;;;9.48;66.22;98493.69;10273832;28;20066;-66
2023/12/12 15:57:56;;;;;;;8.90;3.45;;;;;;;9.26;66.55;98472.84;10273668;28;20142;-67
2023/12/12 16:02:58;;;;;;;10.18;3.85;;;;;;;9.29;66.53;98472.63;10269055;28;20108;-64
2023/12/12 16:08:01;;;;;;;6.07;3.20;;;;;;;9.06;66.97;98473.53;10287076;28;20043;-62
2023/12/12 16:13:03;;;;;;;19.30;3.47;;;;;;;9.05;67.14;98469.28;10276607;28;20062;-64
2023/12/12 16:18:05;;;;;;;7.82;3.15;;;;;;;9.18;67.11;98456.16;10271725;28;20575;-62
2023/12/12 16:23:10;;;;;;;6.93;3.00;;;;;;;9.29;66.80;98449.13;10266288;28;20047;-63
2023/12/12 16:28:12;;;;;;;9.43;4.22;;;;;;;9.35;66.92;98447.81;10257009;28;20373;-64
2023/12/12 16:33:14;;;;;;;11.00;5.13;;;;;;;9.36;66.75;98460.72;10269551;28;20514;-64
2023/12/12 16:40:39;;;;;;;11.65;4.50;;;;;;;9.07;67.27;98438.72;10432364;27;20134;-63
2023/12/12 16:45:42;;;;;;;9.60;4.50;;;;;;;9.16;67.11;98437.97;10423782;28;20041;-63
2023/12/12 16:50:45;;;;;;;8.07;3.80;;;;;;;9.17;67.00;98434.44;10423377;28;20099;-63
2023/12/12 16:55:47;;;;;;;8.30;3.97;;;;;;;9.28;66.86;98425.78;10424051;28;20180;-63
2023/12/12 17:00:50;;;;;;;10.13;4.00;;;;;;;9.30;67.03;98418.66;10426287;28;20099;-63
2023/12/12 17:05:53;;;;;;;11.63;4.25;;;;;;;9.30;67.12;98418.66;10426881;28;20060;-64
2023/12/12 17:10:55;;;;;;;12.55;4.13;;;;;;;9.37;67.04;98427.66;10425279;28;20497;-62
2023/12/12 17:15:57;;;;;;;12.15;4.05;;;;;;;9.45;66.75;98431.31;10423798;28;20056;-63
2023/12/12 17:20:59;;;;;;;9.88;4.53;;;;;;;9.47;66.71;98432.03;10422232;28;20051;-63
2023/12/12 17:26:02;;;;;;;7.18;3.40;;;;;;;9.46;66.70;98425.13;10424644;28;20048;-63
2023/12/12 17:31:04;;;;;;;7.45;3.97;;;;;;;9.39;66.67;98431.81;10423809;28;21148;-62
2023/12/12 17:36:07;;;;;;;8.80;4.00;;;;;;;9.37;66.97;98419.81;10420860;28;20080;-64
2023/12/12 17:41:15;;;;;;;6.25;3.25;;;;;;;9.41;66.83;98409.03;10421217;28;20508;-62
2023/12/12 17:46:18;;;;;;;5.85;2.95;;;;;;;9.47;66.74;98405.94;10422907;28;20041;-63
2023/12/12 17:51:20;;;;;;;7.07;3.10;;;;;;;9.44;66.57;98406.16;10400206;28;20046;-63
2023/12/12 17:56:23;;;;;;;8.65;4.10;;;;;;;9.40;66.58;98404.75;10395386;28;20041;-63
2023/12/12 18:01:25;;;;;;;32.20;3.85;;;;;;;9.28;66.78;98381.44;10397163;28;20049;-63
2023/12/12 18:06:31;;;;;;;18.73;6.22;;;;;;;9.21;66.93;98375.03;10399468;28;20111;-63
2023/12/12 18:11:33;;;;;;;24.98;6.55;;;;;;;9.10;66.96;98362.81;10395612;28;20271;-64
2023/12/12 18:16:36;;;;;;;8.90;4.43;;;;;;;9.08;67.09;98364.72;10401767;28;20045;-63
2023/12/12 18:21:38;;;;;;;12.07;5.25;;;;;;;9.10;67.06;98369.81;10393983;28;20128;-63
2023/12/12 18:26:41;;;;;;;8.65;4.53;;;;;;;9.15;66.82;98365.91;10397443;28;20048;-63
2023/12/12 18:31:45;;;;;;;12.32;5.18;;;;;;;9.24;66.81;98364.38;10397221;28;20049;-63
2023/12/12 18:36:47;;;;;;;12.82;5.97;;;;;;;9.34;66.77;98371.31;10394298;28;20199;-63
2023/12/12 18:41:49;;;;;;;13.05;6.13;;;;;;;9.27;66.76;98364.94;10395873;28;20405;-63
2023/12/12 18:46:53;;;;;;;15.55;6.22;;;;;;;9.29;66.95;98357.81;10401743;28;20060;-63
2023/12/12 18:51:57;;;;;;;8.93;4.30;;;;;;;9.30;67.01;98345.63;10397661;28;20068;-63
2023/12/12 18:56:59;;;;;;;9.98;5.00;;;;;;;9.37;66.88;98341.56;10396316;28;20057;-63
2023/12/12 19:02:01;;;;;;;10.50;4.85;;;;;;;9.34;66.75;98341.81;10396340;28;20045;-63
2023/12/12 19:07:03;;;;;;;35.95;6.82;;;;;;;9.29;66.70;98344.78;10396473;28;20566;-63
2023/12/12 19:12:06;;;;;;;8.38;4.45;;;;;;;9.19;67.08;98351.69;10395858;28;20128;-63
2023/12/12 19:17:08;;;;;;;38.83;3.92;;;;;;;9.14;67.00;98340.78;10395461;28;20501;-63
2023/12/12 19:22:11;;;;;;;9.32;3.28;;;;;;;9.14;67.33;98337.31;10400614;28;20759;-63
2023/12/12 19:27:14;;;;;;;7.32;3.17;;;;;;;9.05;67.36;98341.50;10397320;28;20055;-63
2023/12/12 19:32:18;;;;;;;6.80;3.33;;;;;;;9.12;67.17;98358.31;10395440;28;20486;-63
2023/12/12 19:37:20;;;;;;;6.95;2.88;;;;;;;9.12;67.17;98349.66;10396244;28;20120;-63
2023/12/12 19:42:23;;;;;;;5.20;3.03;;;;;;;9.10;67.27;98349.78;10396583;28;20103;-63
2023/12/12 19:47:25;;;;;;;7.53;4.25;;;;;;;9.09;67.30;98327.28;10395888;28;20377;-63
2023/12/12 19:52:27;;;;;;;7.53;3.75;;;;;;;8.79;67.83;98319.25;10414428;28;20148;-63
2023/12/12 19:57:29;;;;;;;23.90;4.35;;;;;;;8.46;68.77;98269.75;10394697;28;20077;-63
2023/12/12 20:02:33;;;;;;;29.13;5.55;;;;;;;8.20;69.15;98258.72;10396621;28;20059;-63
2023/12/12 20:07:37;;;;;;;10.05;3.85;;;;;;;8.24;69.48;98278.38;10394769;28;20349;-64
2023/12/12 20:12:45;;;;;;;9.50;4.85;;;;;;;8.27;69.54;98295.53;10390498;28;20046;-63
2023/12/12 20:17:48;;;;;;;10.10;4.30;;;;;;;8.37;69.25;98306.91;10390198;28;20072;-63
2023/12/12 20:22:51;;;;;;;7.22;3.90;;;;;;;8.33;68.87;98305.47;10391728;28;20092;-63
2023/12/12 20:27:54;;;;;;;14.88;4.10;;;;;;;8.27;68.77;98309.41;10393734;28;20433;-63
2023/12/12 20:32:56;;;;;;;14.02;3.75;;;;;;;8.26;68.68;98315.53;10393661;28;20052;-62
2023/12/12 20:37:58;;;;;;;5.55;3.22;;;;;;;8.22;68.80;98313.31;10398933;28;20584;-62
2023/12/12 20:43:01;;;;;;;6.03;3.03;;;;;;;8.23;68.56;98309.75;10394288;28;20038;-63
2023/12/12 20:48:07;;;;;;;5.85;3.42;;;;;;;8.24;68.39;98306.19;10408591;28;20115;-62
2023/12/12 20:53:09;;;;;;;12.45;3.80;;;;;;;8.24;68.26;98311.41;10395377;28;20056;-63
2023/12/12 20:58:12;;;;;;;14.73;3.78;;;;;;;8.18;68.54;98297.06;10396303;28;20053;-63
2023/12/12 21:03:14;;;;;;;15.20;3.80;;;;;;;8.18;68.52;98297.06;10398979;28;20525;-62
2023/12/12 21:08:18;;;;;;;6.93;3.17;;;;;;;8.23;68.30;98286.31;10393762;28;20037;-63
2023/12/12 21:13:25;;;;;;;5.03;2.72;;;;;;;8.18;68.24;98280.63;10394154;28;20134;-63
2023/12/12 21:18:29;;;;;;;4.72;2.33;;;;;;;8.04;68.41;98272.03;10393993;28;20051;-65
2023/12/12 21:23:32;;;;;;;5.38;2.40;;;;;;;7.88;68.33;98275.91;10389806;28;20489;-64
2023/12/12 21:28:35;;;;;;;12.05;3.30;;;;;;;7.67;68.94;98265.31;10391959;28;20124;-64
2023/12/12 21:33:37;;;;;;;9.43;4.30;;;;;;;7.56;68.83;98259.28;10394714;28;20053;-64
2023/12/12 21:38:39;;;;;;;12.15;4.65;;;;;;;7.45;68.88;98260.06;10398310;28;20160;-64
2023/12/12 21:43:45;;;;;;;41.03;3.97;;;;;;;7.22;69.08;98258.31;10400090;28;20040;-63
2023/12/12 21:48:47;;;;;;;64.15;3.60;;;;;;;7.03;69.23;98258.81;10398372;28;20041;-64
2023/12/12 21:53:49;;;;;;;4.85;2.10;;;;;;;7.01;69.43;98249.47;10398097;28;20042;-63
2023/12/12 21:58:51;;;;;;;2.78;1.73;;;;;;;7.04;69.24;98244.84;10398957;28;20452;-63
2023/12/12 22:03:58;;;;;;;43.47;3.47;;;;;;;6.97;69.11;98248.84;10405877;28;20052;-63
2023/12/12 22:09:00;;;;;;;29.85;4.00;;;;;;;6.87;69.04;98249.63;10413530;28;20054;-63
2023/12/12 22:14:02;;;;;;;3.67;2.22;;;;;;;6.69;69.43;98261.31;10404895;28;20118;-63
2023/12/12 22:19:04;;;;;;;4.57;2.20;;;;;;;6.65;69.55;98257.28;10403303;28;20174;-63
2023/12/12 22:24:06;;;;;;;15.05;2.78;;;;;;;6.57;69.50;98260.38;10401589;28;20053;-63
2023/12/12 22:29:09;;;;;;;79.03;3.58;;;;;;;6.55;69.56;98262.25;10413831;28;20139;-62
2023/12/12 22:34:11;;;;;;;20.45;2.13;;;;;;;6.54;69.57;98262.38;10409201;28;20418;-62
2023/12/12 22:39:13;;;;;;;9.32;2.13;;;;;;;6.50;69.92;98274.75;10408218;28;20065;-62
2023/12/12 22:44:22;;;;;;;17.60;2.60;;;;;;;6.52;69.84;98262.50;10399559;28;20588;-63
2023/12/12 22:49:24;;;;;;;3.13;1.50;;;;;;;6.58;69.80;98262.06;10403574;28;20180;-62
2023/12/12 22:54:26;;;;;;;5.05;1.75;;;;;;;6.66;69.79;98262.34;10401748;28;20049;-63
2023/12/12 22:59:28;;;;;;;4.40;1.92;;;;;;;6.74;69.72;98261.81;10403437;28;20052;-62
2023/12/12 23:04:34;;;;;;;6.95;1.73;;;;;;;6.74;69.44;98260.03;10399019;28;20076;-62
2023/12/12 23:09:37;;;;;;;7.82;2.30;;;;;;;6.68;69.19;98264.84;10399545;28;20578;-63
2023/12/12 23:14:39;;;;;;;15.55;2.58;;;;;;;6.17;69.07;98264.88;10395941;28;20041;-63
2023/12/12 23:19:41;;;;;;;7.45;1.75;;;;;;;6.02;69.13;98263.31;10394955;28;20053;-64
2023/12/12 23:24:43;;;;;;;2.95;1.52;;;;;;;6.05;69.41;98260.53;10398941;28;20045;-64
2023/12/12 23:29:45;;;;;;;3.35;1.63;;;;;;;6.11;69.41;98251.50;10412475;28;20164;-64
2023/12/12 23:34:48;;;;;;;3.28;1.55;;;;;;;6.04;69.44;98253.66;10395361;28;20502;-64
2023/12/12 23:39:50;;;;;;;19.52;2.75;;;;;;;6.15;69.37;98264.16;10395270;28;20756;-64
2023/12/12 23:44:52;;;;;;;7.72;2.20;;;;;;;6.21;69.28;98262.91;10394667;28;20192;-64